This is the latest recevied weather packets stored in our database for station/object AB8KN-2. If no packets are shown the sender has not sent any weather packets the latest 10 day(s).
| Time | Temp. | Humidity | Pressure | Rain* | Wind** | Luminosity | Snow |
|---|---|---|---|---|---|---|---|
| 1777690218 | 3.89° C | 93% | 1016 hPa | 0 mm | - | 0 W/m² | - |
| 1777687816 | 4.44° C | 91% | 1015.6 hPa | 0 mm | - | 0 W/m² | - |
| 1777680638 | 8.89° C | 72% | 1015 hPa | 0 mm | - | 9 W/m² | - |
| 1777679418 | 8.89° C | 69% | 1014.4 hPa | 0 mm | - | 22 W/m² | - |
| 1777677616 | 9.44° C | 67% | 1014.1 hPa | 0 mm | - | 61 W/m² | - |
| 1777677016 | 9.44° C | 68% | 1014.4 hPa | 0 mm | - | 94 W/m² | - |
| 1777673417 | 9.44° C | 69% | 1014.7 hPa | 0 mm | - | 211 W/m² | - |
| 1777672837 | 9.44° C | 69% | 1014.5 hPa | 0 mm | - | 192 W/m² | - |
| 1777671017 | 8.89° C | 71% | 1014.7 hPa | 0 mm | - | 222 W/m² | - |
| 1777669817 | 8.33° C | 75% | 1014.3 hPa | 0 mm | - | 263 W/m² | - |
| 1777668618 | 8.33° C | 75% | 1013.7 hPa | 0 mm | - | 50 W/m² | - |
| 1777665636 | 8.89° C | 75% | 1013.8 hPa | 0 mm | - | 212 W/m² | - |
| 1777664416 | 8.33° C | 75% | 1013.5 hPa | 0 mm | - | 163 W/m² | - |
| 1777663816 | 8.33° C | 75% | 1013.8 hPa | 0 mm | - | 370 W/m² | - |
| 1777663217 | 9.44° C | 75% | 1013.2 hPa | 0 mm | - | 181 W/m² | - |
| 1777662617 | 9.44° C | 75% | 1013.9 hPa | 0 mm | - | 586 W/m² | - |
| 1777660817 | 10.56° C | 74% | 1012.9 hPa | 0 mm | - | 349 W/m² | - |
| 1777659018 | 11.11° C | 75% | 1012.7 hPa | 0 mm | - | 716 W/m² | - |
| 1777658458 | 11.11° C | 75% | 1011.7 hPa | 0 mm | - | 191 W/m² | - |
| 1777652437 | 8.33° C | 87% | 1011.7 hPa | 1.02 mm | - | 223 W/m² | - |
| 1777649417 | 8.33° C | 89% | 1011.6 hPa | 1.52 mm | - | 61 W/m² | - |
| 1777646418 | 8.33° C | 85% | 1011.8 hPa | 0 mm | - | 71 W/m² | - |
| 1777645218 | 8.33° C | 86% | 1012 hPa | 0 mm | - | 92 W/m² | - |
| 1777644036 | 7.78° C | 87% | 1012.1 hPa | 0.51 mm | - | 85 W/m² | - |
| 1777626658 | 6.67° C | 79% | 1012.3 hPa | 0 mm | - | 0 W/m² | - |
* Rain latest hour (hover to see other rain measurements)
** Current wind speed in m/s (hover to see current wind gust speed)